Time;durP1;ratioP1;P1;durP2;ratioP2;P2;SDS_P1;SDS_P2;PMS_P1;PMS_P2;Temp;Humidity;BMP_temperature;BMP_pressure;BME280_temperature;BME280_humidity;BME280_pressure;Samples;Min_cycle;Max_cycle;Signal;HPM_P1;HPM_P2
2022/08/11 00:01:26;;;;;;;0.00;0.00;;;21.80;61.30;;;;;;4975572;28;20107;-73
2022/08/11 00:04:01;;;;;;;0.00;0.00;;;21.80;61.30;;;;;;4973528;28;20027;-74
2022/08/11 00:06:34;;;;;;;0.00;0.00;;;21.80;61.40;;;;;;4982877;28;20360;-73
2022/08/11 00:09:02;;;;;;;0.00;0.00;;;21.80;61.30;;;;;;4975316;28;20077;-76
2022/08/11 00:11:41;;;;;;;0.00;0.00;;;21.70;61.60;;;;;;4988669;28;20285;-78
2022/08/11 00:14:19;;;;;;;0.00;0.00;;;21.70;61.50;;;;;;4988885;28;20038;-75
2022/08/11 00:16:57;;;;;;;0.00;0.00;;;21.70;61.70;;;;;;4978076;28;20305;-74
2022/08/11 00:19:28;;;;;;;0.00;0.00;;;21.70;61.70;;;;;;4988521;28;20424;-74
2022/08/11 00:21:55;;;;;;;0.00;0.00;;;21.70;62.00;;;;;;4981272;28;20026;-74
2022/08/11 00:24:22;;;;;;;0.00;0.00;;;21.70;61.80;;;;;;4980946;28;20053;-73
2022/08/11 00:26:51;;;;;;;0.00;0.00;;;21.60;61.90;;;;;;4967298;28;20252;-78
2022/08/11 00:29:18;;;;;;;0.00;0.00;;;21.60;61.90;;;;;;4993415;28;20038;-74
2022/08/11 00:31:54;;;;;;;0.00;0.00;;;21.60;62.00;;;;;;4989962;28;20069;-74
2022/08/11 00:34:29;;;;;;;0.00;0.00;;;21.60;62.10;;;;;;4988604;28;20019;-75
2022/08/11 00:37:08;;;;;;;0.00;0.00;;;21.60;62.00;;;;;;4983068;28;20018;-75
2022/08/11 00:39:43;;;;;;;0.00;0.00;;;21.60;62.10;;;;;;4990557;28;20057;-73
2022/08/11 00:42:56;;;;;;;0.00;0.00;;;21.50;63.00;;;;;;4982905;28;20097;-77
2022/08/11 00:45:43;;;;;;;0.00;0.00;;;21.50;62.40;;;;;;4940160;29;20062;-74
2022/08/11 00:48:09;;;;;;;0.00;0.00;;;21.50;62.80;;;;;;4930897;29;20074;-76
2022/08/11 00:50:45;;;;;;;0.00;0.00;;;21.50;62.90;;;;;;4925322;29;20035;-73
2022/08/11 00:53:43;;;;;;;0.00;0.00;;;21.40;62.40;;;;;;4940776;29;20106;-74
2022/08/11 00:56:27;;;;;;;0.00;0.00;;;21.40;62.50;;;;;;4928292;29;20293;-77
2022/08/11 00:59:20;;;;;;;0.00;0.00;;;21.40;62.50;;;;;;4956225;28;20058;-73
2022/08/11 01:01:55;;;;;;;0.00;0.00;;;21.40;63.00;;;;;;4956353;28;20321;-74
2022/08/11 01:04:53;;;;;;;0.00;0.00;;;21.40;63.10;;;;;;4955853;28;20023;-75
2022/08/11 01:07:48;;;;;;;0.00;0.00;;;21.30;62.90;;;;;;4955719;28;20034;-75
2022/08/11 01:10:32;;;;;;;0.00;0.00;;;21.30;63.20;;;;;;4951514;28;20050;-75
2022/08/11 01:13:32;;;;;;;0.00;0.00;;;21.30;63.40;;;;;;4956488;28;20042;-78
2022/08/11 01:16:06;;;;;;;0.00;0.00;;;21.30;63.20;;;;;;4966643;28;20642;-76
2022/08/11 01:18:31;;;;;;;0.00;0.00;;;21.30;63.30;;;;;;4975806;28;20018;-73
2022/08/11 01:21:06;;;;;;;0.00;0.00;;;21.30;64.10;;;;;;4979003;28;20024;-75
2022/08/11 01:24:10;;;;;;;0.00;0.00;;;21.20;63.50;;;;;;4976690;28;20027;-74
2022/08/11 01:26:42;;;;;;;0.00;0.00;;;21.30;63.50;;;;;;4965372;28;20070;-74
2022/08/11 01:29:32;;;;;;;0.00;0.00;;;21.20;63.30;;;;;;4989931;28;20050;-76
2022/08/11 01:32:07;;;;;;;0.00;0.00;;;21.20;63.60;;;;;;4983487;28;20090;-76
2022/08/11 01:35:14;;;;;;;0.00;0.00;;;21.20;63.90;;;;;;4984802;28;20035;-71
2022/08/11 01:38:10;;;;;;;0.00;0.00;;;21.20;64.00;;;;;;4975980;28;20105;-75
2022/08/11 01:41:05;;;;;;;0.00;0.00;;;21.10;63.90;;;;;;4975942;28;20334;-75
2022/08/11 01:47:49;;;;;;;0.00;0.00;;;21.10;64.20;;;;;;4982229;28;20069;-74
2022/08/11 01:50:10;;;;;;;0.00;0.00;;;21.10;64.30;;;;;;4985071;28;20133;-73
2022/08/11 01:53:02;;;;;;;0.00;0.00;;;21.10;64.30;;;;;;4984522;28;20073;-74
2022/08/11 01:55:39;;;;;;;0.00;0.00;;;21.00;64.40;;;;;;4960686;28;20221;-77
2022/08/11 01:58:15;;;;;;;0.00;0.00;;;21.10;64.80;;;;;;4985592;28;20218;-73
2022/08/11 02:01:03;;;;;;;0.00;0.00;;;21.10;64.70;;;;;;4990062;28;20030;-73
2022/08/11 02:03:36;;;;;;;;;;;21.00;64.80;;;;;;4988832;28;20291;-75
2022/08/11 02:09:24;;;;;;;0.00;0.00;;;21.00;65.00;;;;;;4984838;28;20034;-73
2022/08/11 02:11:57;;;;;;;0.00;0.00;;;20.90;65.30;;;;;;4979682;28;20050;-74
2022/08/11 02:14:56;;;;;;;0.00;0.00;;;20.90;65.40;;;;;;4983169;28;20033;-75
2022/08/11 02:17:34;;;;;;;0.00;0.00;;;20.80;65.60;;;;;;5001380;28;20035;-74
2022/08/11 02:26:09;;;;;;;0.00;0.00;;;20.70;66.20;;;;;;4984513;28;20070;-74
2022/08/11 02:29:03;;;;;;;0.00;0.00;;;20.70;66.50;;;;;;4976374;28;20297;-74
2022/08/11 02:34:29;;;;;;;0.00;0.00;;;20.60;67.00;;;;;;4983844;28;20089;-75
2022/08/11 02:37:14;;;;;;;0.00;0.00;;;20.50;67.20;;;;;;4986021;28;20018;-74
2022/08/11 02:39:52;;;;;;;0.00;0.00;;;20.50;67.40;;;;;;4990388;28;20081;-73
2022/08/11 02:42:33;;;;;;;0.00;0.00;;;20.50;67.60;;;;;;4989983;28;20026;-77
2022/08/11 02:45:31;;;;;;;0.00;0.00;;;20.40;67.90;;;;;;4990109;28;20031;-74
2022/08/11 02:50:59;;;;;;;0.00;0.00;;;20.30;68.20;;;;;;4992099;28;20068;-74
2022/08/11 02:53:48;;;;;;;0.00;0.00;;;20.30;68.40;;;;;;4974560;28;20186;-73
2022/08/11 02:56:46;;;;;;;0.00;0.00;;;20.20;68.70;;;;;;4963143;28;20026;-73
2022/08/11 03:02:42;;;;;;;0.00;0.00;;;20.20;68.90;;;;;;4981565;28;20432;-73
2022/08/11 03:05:16;;;;;;;0.00;0.00;;;20.10;69.00;;;;;;4964872;28;20536;-76
2022/08/11 03:08:17;;;;;;;0.00;0.00;;;20.10;69.20;;;;;;4988395;28;20045;-74
2022/08/11 03:17:31;;;;;;;0.00;0.00;;;20.00;69.60;;;;;;4986024;28;20314;-76
2022/08/11 03:20:04;;;;;;;0.00;0.00;;;19.90;69.80;;;;;;4982647;28;20029;-74
2022/08/11 03:22:37;;;;;;;0.00;0.00;;;19.90;70.00;;;;;;4981107;28;20022;-75
2022/08/11 03:25:18;;;;;;;0.00;0.00;;;19.90;70.10;;;;;;4976103;28;20691;-74
2022/08/11 03:28:06;;;;;;;0.00;0.00;;;19.80;70.30;;;;;;4982370;28;20023;-75
2022/08/11 03:30:38;;;;;;;0.00;0.00;;;19.80;70.40;;;;;;4993190;28;20023;-75
2022/08/11 03:36:45;;;;;;;0.00;0.00;;;19.70;70.60;;;;;;4980002;28;20085;-74
2022/08/11 03:39:21;;;;;;;0.00;0.00;;;19.70;70.80;;;;;;4980275;28;20023;-75
2022/08/11 03:42:17;;;;;;;0.00;0.00;;;19.60;70.90;;;;;;4984500;28;20034;-75
2022/08/11 03:45:14;;;;;;;0.00;0.00;;;19.60;71.10;;;;;;4973725;28;20025;-74
2022/08/11 03:48:07;;;;;;;0.00;0.00;;;19.60;71.30;;;;;;4977362;28;20042;-74
2022/08/11 03:51:10;;;;;;;0.00;0.00;;;19.60;71.70;;;;;;4980780;28;20026;-74
2022/08/11 03:53:58;;;;;;;0.00;0.00;;;19.50;71.80;;;;;;4961341;28;20086;-73
2022/08/11 03:57:02;;;;;;;0.00;0.00;;;19.50;72.00;;;;;;4978127;28;20042;-73
2022/08/11 04:00:02;;;;;;;0.00;0.00;;;19.50;72.00;;;;;;4980454;28;20022;-75
2022/08/11 04:02:48;;;;;;;0.00;0.00;;;19.50;72.10;;;;;;4979209;28;20300;-76
2022/08/11 04:05:14;;;;;;;0.00;0.00;;;19.50;72.20;;;;;;4978770;28;20027;-74
2022/08/11 04:07:58;;;;;;;0.00;0.00;;;19.50;72.30;;;;;;4980078;28;20337;-75
2022/08/11 04:10:26;;;;;;;0.00;0.00;;;19.50;72.20;;;;;;4982551;28;20113;-77
2022/08/11 04:13:11;;;;;;;0.00;0.00;;;19.50;72.30;;;;;;4981346;28;20365;-74
2022/08/11 04:15:59;;;;;;;0.00;0.00;;;19.50;72.40;;;;;;4995106;28;20702;-75
2022/08/11 04:18:43;;;;;;;;;;;19.50;72.40;;;;;;4983220;28;20273;-75
2022/08/11 04:21:34;;;;;;;0.00;0.00;;;19.50;72.60;;;;;;4996036;28;19902;-75
2022/08/11 04:24:24;;;;;;;0.00;0.00;;;19.40;72.70;;;;;;4974510;28;20074;-74
2022/08/11 04:27:18;;;;;;;0.00;0.00;;;19.40;72.70;;;;;;4979057;28;20293;-74
2022/08/11 04:30:06;;;;;;;0.00;0.00;;;19.40;72.80;;;;;;4983009;28;20225;-72
2022/08/11 04:33:09;;;;;;;0.00;0.00;;;19.40;72.70;;;;;;4983384;28;20058;-73
2022/08/11 04:36:01;;;;;;;0.00;0.00;;;19.40;72.80;;;;;;4976467;28;20033;-75
2022/08/11 04:38:32;;;;;;;0.00;0.00;;;19.40;72.90;;;;;;4976526;28;20033;-73
2022/08/11 04:41:20;;;;;;;0.00;0.00;;;19.40;72.90;;;;;;4980584;28;20030;-76
2022/08/11 04:44:43;;;;;;;0.00;0.00;;;19.40;72.90;;;;;;4960847;28;20110;-75
2022/08/11 04:47:09;;;;;;;0.00;0.00;;;19.40;72.90;;;;;;4941175;29;20047;-73
2022/08/11 05:02:36;;;;;;;0.00;0.00;;;19.50;72.30;;;;;;4983097;28;20281;-74
2022/08/11 05:05:32;;;;;;;0.00;0.00;;;19.50;72.40;;;;;;4982226;28;20019;-74
2022/08/11 05:08:32;;;;;;;0.00;0.00;;;19.50;72.10;;;;;;4982266;28;20026;-74
2022/08/11 05:11:22;;;;;;;0.00;0.00;;;19.50;72.00;;;;;;4958504;28;20062;-75
2022/08/11 05:37:11;;;;;;;0.00;0.00;;;19.90;70.60;;;;;;4981367;28;20090;-74
2022/08/11 05:56:46;;;;;;;0.00;0.00;;;20.20;69.50;;;;;;4980029;28;20038;-74
2022/08/11 05:59:18;;;;;;;0.00;0.00;;;20.20;69.30;;;;;;4980031;28;20237;-75
2022/08/11 06:01:44;;;;;;;0.00;0.00;;;20.20;69.10;;;;;;4983272;28;20038;-74
2022/08/11 06:04:18;;;;;;;0.00;0.00;;;20.30;69.30;;;;;;4982897;28;20033;-73
2022/08/11 06:07:08;;;;;;;0.00;0.00;;;20.30;68.00;;;;;;4985100;28;20086;-74
2022/08/11 06:09:37;;;;;;;0.00;0.00;;;20.40;68.50;;;;;;4983913;28;20029;-74
2022/08/11 06:12:04;;;;;;;0.00;0.00;;;20.40;68.90;;;;;;4982714;28;20326;-73
2022/08/11 06:14:31;;;;;;;0.00;0.00;;;20.40;68.60;;;;;;4995601;28;20213;-75
2022/08/11 06:16:59;;;;;;;0.00;0.00;;;20.50;68.80;;;;;;4985331;28;20076;-74
2022/08/11 06:19:34;;;;;;;0.00;0.00;;;20.50;68.80;;;;;;4981191;28;20088;-75
2022/08/11 06:22:02;;;;;;;0.00;0.00;;;20.70;68.50;;;;;;4984606;28;20029;-73
2022/08/11 06:24:28;;;;;;;0.00;0.00;;;20.90;67.20;;;;;;4981376;28;20657;-76
2022/08/11 06:26:54;;;;;;;0.00;0.00;;;21.50;66.80;;;;;;4976395;28;20085;-73
2022/08/11 06:29:22;;;;;;;0.00;0.00;;;22.40;64.90;;;;;;4980042;28;20033;-74
2022/08/11 06:32:11;;;;;;;0.00;0.00;;;23.50;61.80;;;;;;4993613;28;20010;-76
2022/08/11 06:34:40;;;;;;;0.00;0.00;;;24.70;60.10;;;;;;4984287;28;20027;-76
2022/08/11 06:37:23;;;;;;;0.00;0.00;;;25.80;57.00;;;;;;4980793;28;20098;-74
2022/08/11 06:40:08;;;;;;;0.00;0.00;;;26.50;54.90;;;;;;4978890;28;20022;-75
2022/08/11 06:43:07;;;;;;;0.00;0.00;;;27.20;53.60;;;;;;4976010;28;20385;-74
2022/08/11 06:45:40;;;;;;;0.00;0.00;;;27.80;52.50;;;;;;4980879;28;20047;-75
2022/08/11 06:48:14;;;;;;;0.00;0.00;;;28.50;51.50;;;;;;4982658;28;20023;-74
2022/08/11 06:54:01;;;;;;;0.00;0.00;;;29.80;49.70;;;;;;4954318;29;20315;-74
2022/08/11 07:02:21;;;;;;;0.00;0.00;;;30.80;47.10;;;;;;4983962;28;20021;-75
2022/08/11 07:04:52;;;;;;;0.00;0.00;;;30.60;46.80;;;;;;4983349;28;20022;-76
2022/08/11 07:16:46;;;;;;;0.00;0.00;;;27.30;50.80;;;;;;4976376;28;20034;-75
2022/08/11 07:31:13;;;;;;;0.00;0.00;;;24.70;56.30;;;;;;4984822;28;20557;-77
2022/08/11 07:33:49;;;;;;;0.00;0.00;;;24.50;57.30;;;;;;4983845;28;20026;-77
2022/08/11 07:36:17;;;;;;;0.00;0.00;;;24.30;57.00;;;;;;4975494;28;20030;-77
2022/08/11 07:38:50;;;;;;;0.00;0.00;;;24.20;57.80;;;;;;4964597;28;20023;-74
2022/08/11 07:41:18;;;;;;;0.00;0.00;;;24.10;58.20;;;;;;4976898;28;20301;-75
2022/08/11 07:43:47;;;;;;;0.00;0.00;;;24.00;58.20;;;;;;4983085;28;20022;-73
2022/08/11 07:54:32;;;;;;;0.00;0.00;;;23.90;59.10;;;;;;4982319;28;20057;-73
2022/08/11 07:56:58;;;;;;;0.00;0.00;;;23.90;58.90;;;;;;4986642;28;20277;-75
2022/08/11 08:18:43;;;;;;;0.00;0.00;;;24.00;59.80;;;;;;4985462;28;20045;-76
2022/08/11 08:21:13;;;;;;;0.00;0.00;;;24.00;59.30;;;;;;4986500;28;20352;-75
2022/08/11 08:23:46;;;;;;;0.00;0.00;;;24.00;59.10;;;;;;4983900;28;20081;-76
2022/08/11 08:31:51;;;;;;;0.00;0.00;;;24.20;59.00;;;;;;4982192;28;20079;-74
2022/08/11 08:34:18;;;;;;;0.00;0.00;;;24.20;59.10;;;;;;4984490;28;20030;-77
2022/08/11 08:36:49;;;;;;;0.00;0.00;;;24.70;58.80;;;;;;4987081;28;20313;-73
2022/08/11 08:39:19;;;;;;;0.00;0.00;;;24.30;59.00;;;;;;4991050;28;20055;-73
2022/08/11 08:41:49;;;;;;;0.00;0.00;;;24.30;58.50;;;;;;4977416;28;20129;-74
2022/08/11 08:44:17;;;;;;;0.00;0.00;;;24.30;57.90;;;;;;4987277;28;20093;-75
2022/08/11 08:46:49;;;;;;;0.00;0.00;;;24.30;59.40;;;;;;4996808;28;20035;-74
2022/08/11 08:49:18;;;;;;;0.00;0.00;;;24.40;59.00;;;;;;4979516;28;20117;-75
2022/08/11 08:51:47;;;;;;;0.00;0.00;;;24.50;58.10;;;;;;4984735;28;20031;-74
2022/08/11 08:54:17;;;;;;;0.00;0.00;;;24.80;58.50;;;;;;4967730;28;20046;-74
2022/08/11 08:56:44;;;;;;;0.00;0.00;;;25.40;57.50;;;;;;4978188;28;20118;-77
2022/08/11 08:59:12;;;;;;;0.00;0.00;;;26.00;55.90;;;;;;4984565;28;20049;-74
2022/08/11 09:01:58;;;;;;;0.00;0.00;;;26.90;54.30;;;;;;4977200;28;20030;-75
2022/08/11 09:04:25;;;;;;;0.00;0.00;;;28.20;53.30;;;;;;4977523;28;20022;-77
2022/08/11 09:06:52;;;;;;;0.00;0.00;;;29.50;51.00;;;;;;4983773;28;20054;-77
2022/08/11 09:09:20;;;;;;;0.00;0.00;;;31.00;49.10;;;;;;4967675;28;20080;-79
2022/08/11 09:11:50;;;;;;;0.00;0.00;;;33.00;47.40;;;;;;4986326;28;20050;-74
2022/08/11 09:14:22;;;;;;;0.00;0.00;;;34.90;44.50;;;;;;4983308;28;20030;-75
2022/08/11 09:16:49;;;;;;;0.00;0.00;;;36.80;42.90;;;;;;4983303;28;20031;-79
2022/08/11 09:19:16;;;;;;;;;;;37.70;40.70;;;;;;4986654;28;20214;-75
2022/08/11 09:26:57;;;;;;;0.00;0.00;;;38.40;39.30;;;;;;4995887;28;19909;-77
2022/08/11 09:27:17;;;;;;;0.00;0.00;;;39.80;37.70;;;;;;4985721;28;20301;-77
2022/08/11 09:29:44;;;;;;;0.00;0.00;;;40.90;36.90;;;;;;4999265;28;20019;-75
2022/08/11 09:32:11;;;;;;;0.00;0.00;;;41.60;34.80;;;;;;4984499;28;20234;-78
2022/08/11 09:34:38;;;;;;;0.00;0.00;;;41.20;34.10;;;;;;4986141;28;20022;-76
2022/08/11 09:45:19;;;;;;;0.00;0.00;;;36.60;37.10;;;;;;4989643;28;20029;-76
2022/08/11 09:47:45;;;;;;;0.00;0.00;;;36.50;38.70;;;;;;4977696;28;20324;-75
2022/08/11 09:50:15;;;;;;;0.00;0.00;;;37.80;37.20;;;;;;4982813;28;20019;-75
2022/08/11 09:52:42;;;;;;;0.00;0.00;;;39.50;36.50;;;;;;4982966;28;20034;-77
2022/08/11 09:55:11;;;;;;;0.00;0.00;;;40.60;35.30;;;;;;4977613;28;20644;-79
2022/08/11 10:00:31;;;;;;;0.00;0.00;;;43.00;34.60;;;;;;4986750;28;20038;-79
2022/08/11 10:03:00;;;;;;;0.00;0.00;;;42.50;32.20;;;;;;4985646;28;20033;-74
2022/08/11 10:08:13;;;;;;;0.00;0.00;;;38.00;34.60;;;;;;4980684;28;20078;-76
2022/08/11 10:10:40;;;;;;;0.00;0.00;;;36.40;36.60;;;;;;4974773;28;20087;-76
2022/08/11 10:13:09;;;;;;;0.00;0.00;;;35.70;37.10;;;;;;4980930;28;20022;-75
2022/08/11 10:15:38;;;;;;;0.00;0.00;;;34.60;37.80;;;;;;4984683;28;20039;-76
2022/08/11 10:21:34;;;;;;;0.00;0.00;;;34.00;38.30;;;;;;4981569;28;20122;-76
2022/08/11 10:34:49;;;;;;;0.00;0.00;;;31.70;40.80;;;;;;4981599;28;20257;-77
2022/08/11 10:37:16;;;;;;;0.00;0.00;;;31.30;41.30;;;;;;4973678;28;20114;-74
2022/08/11 10:39:43;;;;;;;0.00;0.00;;;30.80;41.60;;;;;;4984050;28;20034;-75
2022/08/11 10:44:57;;;;;;;0.00;0.00;;;31.40;42.10;;;;;;4983392;28;20021;-77
2022/08/11 10:47:38;;;;;;;0.00;0.00;;;33.60;39.80;;;;;;4981279;28;20062;-76
2022/08/11 11:01:11;;;;;;;0.00;0.00;;;42.50;33.00;;;;;;4979775;28;20356;-74
2022/08/11 11:03:38;;;;;;;0.00;0.00;;;42.60;32.90;;;;;;4980598;28;20062;-78
2022/08/11 11:06:09;;;;;;;0.00;0.00;;;41.10;31.50;;;;;;4978763;28;20314;-74
2022/08/11 11:08:53;;;;;;;0.00;0.00;;;39.70;32.90;;;;;;4984057;28;20081;-74
2022/08/11 11:11:22;;;;;;;0.00;0.00;;;39.30;33.80;;;;;;4983965;28;20081;-74
2022/08/11 11:19:25;;;;;;;0.00;0.00;;;40.80;32.60;;;;;;4987501;28;20020;-74
2022/08/11 11:22:36;;;;;;;0.00;0.00;;;41.70;33.20;;;;;;4969154;28;20025;-75
2022/08/11 11:24:59;;;;;;;0.00;0.00;;;42.30;32.80;;;;;;4982689;28;20117;-75
2022/08/11 11:27:38;;;;;;;0.00;0.00;;;43.10;31.80;;;;;;4982308;28;20034;-75
2022/08/11 11:30:09;;;;;;;0.00;0.00;;;42.50;30.80;;;;;;4981156;28;20034;-74
2022/08/11 11:33:01;;;;;;;0.00;0.00;;;42.00;30.60;;;;;;4987033;28;20050;-74
2022/08/11 11:35:48;;;;;;;0.00;0.00;;;42.00;31.10;;;;;;4976538;28;20019;-76
2022/08/11 11:38:15;;;;;;;0.00;0.00;;;42.50;31.00;;;;;;4979225;28;20039;-75
2022/08/11 11:40:43;;;;;;;0.00;0.00;;;42.90;32.00;;;;;;4987346;28;20015;-78
2022/08/11 11:43:09;;;;;;;0.00;0.00;;;43.40;30.50;;;;;;4982515;28;20198;-76
2022/08/11 11:45:35;;;;;;;0.00;0.00;;;43.90;29.30;;;;;;4978452;28;20046;-79
2022/08/11 11:48:01;;;;;;;;;;;42.20;29.70;;;;;;4982145;28;20092;-75
2022/08/11 11:50:35;;;;;;;0.00;0.00;;;41.90;30.50;;;;;;4992485;28;20257;-77
2022/08/11 11:53:07;;;;;;;0.00;0.00;;;41.00;30.00;;;;;;4977361;28;20078;-76
2022/08/11 11:55:34;;;;;;;0.00;0.00;;;40.20;30.50;;;;;;4973922;28;20065;-75
2022/08/11 12:03:34;;;;;;;0.00;0.00;;;36.50;32.30;;;;;;4981440;28;20106;-76
2022/08/11 12:06:01;;;;;;;0.00;0.00;;;34.90;33.80;;;;;;4977997;28;20289;-74
2022/08/11 12:08:27;;;;;;;0.00;0.00;;;34.00;34.50;;;;;;4983335;28;20054;-77
2022/08/11 12:13:49;;;;;;;0.00;0.00;;;33.20;35.60;;;;;;4985829;28;20025;-75
2022/08/11 12:16:17;;;;;;;0.00;0.00;;;32.80;36.40;;;;;;4984857;28;20057;-76
2022/08/11 12:18:48;;;;;;;0.00;0.00;;;32.30;36.90;;;;;;4983702;28;20145;-75
2022/08/11 12:21:15;;;;;;;0.00;0.00;;;32.00;36.40;;;;;;4983940;28;20019;-75
2022/08/11 12:27:29;;;;;;;0.00;0.00;;;31.50;38.10;;;;;;4985052;28;20053;-74
2022/08/11 12:29:26;;;;;;;0.00;0.00;;;31.40;37.00;;;;;;4981919;28;20325;-75
2022/08/11 12:31:53;;;;;;;0.00;0.00;;;31.50;38.50;;;;;;4988356;28;20300;-75
2022/08/11 12:34:20;;;;;;;0.00;0.00;;;31.60;36.30;;;;;;4986731;28;20070;-76
2022/08/11 12:36:49;;;;;;;0.00;0.00;;;31.50;36.10;;;;;;4989265;28;20027;-75
2022/08/11 12:45:26;;;;;;;0.00;0.00;;;31.50;37.10;;;;;;4998861;28;20030;-74
2022/08/11 12:51:55;;;;;;;0.00;0.00;;;31.00;37.00;;;;;;4987126;28;20699;-74
2022/08/11 12:53:10;;;;;;;0.00;0.00;;;30.90;38.20;;;;;;4986001;28;20102;-76
2022/08/11 12:58:26;;;;;;;0.00;0.00;;;30.60;36.90;;;;;;4990555;28;20034;-75
2022/08/11 13:06:23;;;;;;;0.00;0.00;;;30.70;38.10;;;;;;4983401;28;20077;-75
2022/08/11 13:08:50;;;;;;;0.00;0.00;;;30.90;37.80;;;;;;4986826;28;20068;-75
2022/08/11 13:14:01;;;;;;;0.00;0.00;;;30.70;36.80;;;;;;4989565;28;20053;-76
2022/08/11 13:17:19;;;;;;;0.00;0.00;;;30.90;37.20;;;;;;4979498;28;20092;-78
2022/08/11 13:19:19;;;;;;;0.00;0.00;;;30.90;37.80;;;;;;4989979;28;20045;-78
2022/08/11 13:21:48;;;;;;;0.00;0.00;;;30.90;38.60;;;;;;4993930;28;20128;-74
2022/08/11 13:24:14;;;;;;;0.00;0.00;;;31.00;37.80;;;;;;4994052;28;20094;-75
2022/08/11 13:26:42;;;;;;;0.00;0.00;;;31.00;37.50;;;;;;4990895;28;20023;-75
2022/08/11 13:29:08;;;;;;;0.00;0.00;;;30.90;37.40;;;;;;4989771;28;20053;-75
2022/08/11 13:31:35;;;;;;;0.00;0.00;;;30.90;37.00;;;;;;4978769;28;20042;-75
2022/08/11 13:34:02;;;;;;;0.00;0.00;;;30.80;37.10;;;;;;4988930;28;20077;-76
2022/08/11 13:36:28;;;;;;;0.00;0.00;;;30.70;39.80;;;;;;4991399;28;20030;-75
2022/08/11 13:38:57;;;;;;;0.00;0.00;;;30.60;39.50;;;;;;4986106;28;20030;-75
2022/08/11 13:41:38;;;;;;;0.00;0.00;;;30.50;39.50;;;;;;5003590;28;20061;-74
2022/08/11 13:44:05;;;;;;;0.00;0.00;;;30.50;38.90;;;;;;4989866;28;20014;-76
2022/08/11 13:46:32;;;;;;;0.00;0.00;;;30.40;38.60;;;;;;4980099;28;20031;-77
2022/08/11 13:48:59;;;;;;;0.00;0.00;;;30.10;40.00;;;;;;4987930;28;20022;-75
2022/08/11 13:51:32;;;;;;;0.00;0.00;;;29.90;41.10;;;;;;4988240;28;20034;-76
2022/08/11 13:54:01;;;;;;;0.00;0.00;;;29.80;40.20;;;;;;4984976;28;20306;-75
2022/08/11 13:56:27;;;;;;;0.00;0.00;;;29.60;42.00;;;;;;4990158;28;20026;-75
2022/08/11 13:58:54;;;;;;;0.00;0.00;;;29.60;42.30;;;;;;4982941;28;20019;-74
2022/08/11 14:01:20;;;;;;;;;;;29.50;42.00;;;;;;4989186;28;20018;-75
2022/08/11 14:03:48;;;;;;;0.00;0.00;;;29.60;40.90;;;;;;4979449;28;19949;-75
2022/08/11 14:06:18;;;;;;;0.00;0.00;;;29.70;42.50;;;;;;4989311;28;20030;-75
2022/08/11 14:08:44;;;;;;;0.00;0.00;;;29.70;42.60;;;;;;4988486;28;20094;-76
2022/08/11 14:13:57;;;;;;;0.00;0.00;;;29.80;42.60;;;;;;4985512;28;20030;-75
2022/08/11 14:16:30;;;;;;;0.00;0.00;;;29.80;41.90;;;;;;4984316;28;20301;-76
2022/08/11 14:19:04;;;;;;;0.00;0.00;;;29.80;41.40;;;;;;4977026;28;20022;-75
2022/08/11 14:24:20;;;;;;;0.00;0.00;;;29.70;43.70;;;;;;4983679;28;20030;-76
2022/08/11 14:26:50;;;;;;;0.00;0.00;;;29.80;43.20;;;;;;4987419;28;20027;-76
2022/08/11 14:29:18;;;;;;;0.00;0.00;;;29.80;42.70;;;;;;4987046;28;20601;-75
2022/08/11 14:31:45;;;;;;;0.00;0.00;;;29.70;42.80;;;;;;4983964;28;20096;-77
2022/08/11 14:34:13;;;;;;;;;;;29.60;43.70;;;;;;4988025;28;20033;-76
2022/08/11 14:36:42;;;;;;;0.00;0.00;;;29.60;42.10;;;;;;4982011;28;19914;-76
2022/08/11 14:39:11;;;;;;;0.00;0.00;;;29.60;42.40;;;;;;4985921;28;20050;-76
2022/08/11 14:47:14;;;;;;;0.00;0.00;;;29.50;44.90;;;;;;4979904;28;20029;-75
2022/08/11 14:49:41;;;;;;;0.00;0.00;;;29.50;41.50;;;;;;4987882;28;20034;-76
2022/08/11 14:52:14;;;;;;;;;;;29.30;41.70;;;;;;4968752;28;20258;-77
2022/08/11 14:57:34;;;;;;;0.00;0.00;;;29.00;43.70;;;;;;4980402;28;20178;-76
2022/08/11 15:00:02;;;;;;;0.00;0.00;;;29.00;44.80;;;;;;4987279;28;20049;-75
2022/08/11 15:05:14;;;;;;;0.00;0.00;;;28.90;42.40;;;;;;4985752;28;20105;-75
2022/08/11 15:07:41;;;;;;;0.00;0.00;;;28.80;42.70;;;;;;4987086;28;20034;-76
2022/08/11 15:10:08;;;;;;;0.00;0.00;;;28.70;42.80;;;;;;4982808;28;20033;-73
2022/08/11 15:12:38;;;;;;;0.00;0.00;;;28.60;43.30;;;;;;4988045;28;20026;-75
2022/08/11 15:17:58;;;;;;;0.00;0.00;;;28.40;44.30;;;;;;4987018;28;20038;-75
2022/08/11 15:26:08;;;;;;;0.00;0.00;;;28.20;45.60;;;;;;4969167;28;20261;-75
2022/08/11 15:39:36;;;;;;;0.00;0.00;;;28.00;45.60;;;;;;4986162;28;20044;-77
2022/08/11 15:47:57;;;;;;;0.00;0.00;;;27.90;45.30;;;;;;4979881;28;20062;-74
2022/08/11 15:50:30;;;;;;;0.00;0.00;;;27.90;45.40;;;;;;4987780;28;20046;-76
2022/08/11 15:53:01;;;;;;;0.00;0.00;;;27.80;45.10;;;;;;4989269;28;20023;-76
2022/08/11 15:55:28;;;;;;;0.00;0.00;;;27.80;45.90;;;;;;4981476;28;20197;-74
2022/08/11 16:06:15;;;;;;;0.00;0.00;;;27.70;45.70;;;;;;4983043;28;20041;-76
2022/08/11 16:08:42;;;;;;;0.00;0.00;;;27.60;45.60;;;;;;4986093;28;20314;-75
2022/08/11 16:11:08;;;;;;;0.00;0.00;;;27.50;45.00;;;;;;4963680;28;20054;-77
2022/08/11 16:16:13;;;;;;;0.00;0.00;;;27.50;45.50;;;;;;4984665;28;20170;-75
2022/08/11 16:18:50;;;;;;;0.00;0.00;;;27.50;45.40;;;;;;4984036;28;20022;-75
2022/08/11 16:21:23;;;;;;;0.00;0.00;;;27.50;45.90;;;;;;4975144;28;20221;-73
2022/08/11 16:23:50;;;;;;;0.00;0.00;;;27.50;46.00;;;;;;4987001;28;20035;-74
2022/08/11 16:26:24;;;;;;;0.00;0.00;;;27.40;45.70;;;;;;4984660;28;20027;-75
2022/08/11 16:28:55;;;;;;;0.00;0.00;;;27.40;46.00;;;;;;4990510;28;20058;-73
2022/08/11 16:31:22;;;;;;;0.00;0.00;;;27.40;46.00;;;;;;4966218;28;20194;-75
2022/08/11 16:33:50;;;;;;;0.00;0.00;;;27.40;46.70;;;;;;4976017;28;20038;-77
2022/08/11 16:39:02;;;;;;;0.00;0.00;;;27.20;45.80;;;;;;4981477;28;20138;-75
2022/08/11 16:47:03;;;;;;;0.00;0.00;;;27.00;46.00;;;;;;4990838;28;19940;-76
2022/08/11 16:49:42;;;;;;;0.00;0.00;;;26.90;46.10;;;;;;4983536;28;20207;-76
2022/08/11 16:52:11;;;;;;;0.00;0.00;;;26.80;45.90;;;;;;4982487;28;20027;-74
2022/08/11 16:54:39;;;;;;;0.00;0.00;;;26.70;46.10;;;;;;4980858;28;20230;-77
2022/08/11 17:00:16;;;;;;;0.00;0.00;;;26.50;45.70;;;;;;4991103;28;20182;-74
2022/08/11 17:13:59;;;;;;;0.00;0.00;;;26.30;46.50;;;;;;4990864;28;20081;-74
2022/08/11 17:16:33;;;;;;;0.00;0.00;;;26.30;46.40;;;;;;4990369;28;20023;-74
2022/08/11 17:19:08;;;;;;;0.00;0.00;;;26.20;45.70;;;;;;4992586;28;20340;-74
2022/08/11 17:24:44;;;;;;;0.00;0.00;;;26.20;45.70;;;;;;4942756;28;20119;-75
2022/08/11 17:27:15;;;;;;;0.00;0.00;;;26.10;46.60;;;;;;4981262;28;20035;-76
2022/08/11 17:30:03;;;;;;;0.00;0.00;;;26.10;45.80;;;;;;4977983;28;20204;-75
2022/08/11 17:35:29;;;;;;;0.00;0.00;;;26.00;46.20;;;;;;4993130;28;20021;-74
2022/08/11 17:38:17;;;;;;;0.00;0.00;;;25.90;46.60;;;;;;4978832;28;20081;-74
2022/08/11 17:49:19;;;;;;;0.00;0.00;;;25.70;46.20;;;;;;4979539;28;20038;-75
2022/08/11 18:00:07;;;;;;;0.00;0.00;;;25.50;46.80;;;;;;4985841;28;20202;-76
2022/08/11 18:05:23;;;;;;;0.00;0.00;;;25.40;47.50;;;;;;4994009;28;20598;-75
